13°C
Gosport, Hampshire, United Kingdom
Language:  English
Updated23/05/2022 00:25:00 
 

Nearby METAR Reports

 

EGHI - Southampton Wx Centre, United Kingdom
Distance from station: NW 15mi, 24km
Updated: 22-May-2022 21:20:00
NOT Current
Clear
Clear
 Wind from WSW
Wind: WSW 2 mph , 4 km/h
Temperature: 14°C
Dew Point: 7°C
Humidity: 63%
Barometer: 1009 hPa
Summary: Clear
Visibility: greater than 7 miles , 10 km
2022/05/22 20:20 EGHI 222020Z 24002KT CAVOK 14/07 Q1009
EGHH - Bournemouth Airport, United Kingdom
Distance from station: W 30mi, 49km
Updated: 22-May-2022 23:20:00
NOT Current
Clear
Clear
 Wind from varies
Wind: varies 1 mph , 2 km/h
Temperature: 9°C
Dew Point: 7°C
Humidity: 87%
Barometer: 1008 hPa
Summary: Clear
Visibility: greater than 7 miles , 10 km
2022/05/22 22:20 EGHH 222220Z VRB01KT CAVOK 09/07 Q1008
EGVP - Middle Wallop Airfield, United Kingdom
Distance from station: NW 31mi, 49km
Updated: 23-May-2022 02:50:00
Partly cloudy
Partly cloudy
 Wind from N
Wind: N 2 mph , 4 km/h
Temperature: 10°C
Dew Point: 7°C
Humidity: 82%
Barometer: 1006 hPa
Clouds: Partly cloudy
Visibility: 6 miles , 10 km
Cloud details: Partly cloudy 6096 m
2022/05/23 01:50 EGVP 230150Z AUTO 36002KT 9999 SCT200/// 10/07 Q1006
 
EGVO - RAF Odiham, United Kingdom
Distance from station: NNE 32mi, 52km
Updated: 23-May-2022 02:50:00
Partly cloudy
Partly cloudy
 Wind from W
Wind: W 5 mph , 7 km/h
Temperature: 11°C
Dew Point: 6°C
Humidity: 72%
Barometer: 1006 hPa
Clouds: Partly cloudy
Visibility: 6 miles , 10 km
Cloud details: Few Clouds 1341 m
Partly cloudy 6096 m
2022/05/23 01:50 EGVO 230150Z AUTO 26004KT 9999 FEW044/// SCT200/// 11/06 Q1006
EGKA - Shoreham Airport, United Kingdom
Distance from station: E 37mi, 59km
Updated: 22-May-2022 18:50:00
NOT Current
Clear
Clear
 Wind from SSE
Wind: SSE 5 mph , 7 km/h
Temperature: 16°C
Dew Point: 7°C
Humidity: 55%
Barometer: 1010 hPa
Summary: Clear
Visibility: greater than 7 miles , 10 km
2022/05/22 17:50 EGKA 221750Z 16004KT CAVOK 16/07 Q1010
EGDM - Boscombe Down, United Kingdom
Distance from station: NW 38mi, 61km
Updated: 23-May-2022 02:50:00
Mostly cloudy
Mostly cloudy
 Wind from SSW
Wind: SSW 3 mph , 6 km/h
Temperature: 9°C
Dew Point: 7°C
Humidity: 87%
Barometer: 1006 hPa
Clouds: Mostly cloudy
Visibility: 6 miles , 10 km
Cloud details: Few Clouds 2438 m
Mostly cloudy 6096 m
2022/05/23 01:50 EGDM 230150Z AUTO 21003KT 9999 FEW080/// BKN200/// 09/07 Q1006
 
EGLF - Farnborough, United Kingdom
Distance from station: NNE 38mi, 61km
Updated: 23-May-2022 02:50:00
Mostly cloudy
Mostly cloudy
 Wind from S
Wind: S 1 mph , 2 km/h
Temperature: 9°C
Dew Point: 6°C
Humidity: 82%
Barometer: 1006 hPa
Clouds: Mostly cloudy
Visibility: 6 miles , 10 km
Cloud details: Mostly cloudy 1402 m
2022/05/23 01:50 EGLF 230150Z AUTO 19001KT 9999 BKN046/// 09/06 Q1006
EGKK - Gatwick Airport, United Kingdom
Distance from station: ENE 49mi, 78km
Updated: 23-May-2022 02:50:00
Clear
Clear
 Wind from SSW
Wind: SSW 1 mph , 2 km/h
Temperature: 13°C
Dew Point: 8°C
Humidity: 72%
Barometer: 1006 hPa
Summary: Clear
Visibility: greater than 7 miles , 10 km
2022/05/23 01:50 EGKK 230150Z 20001KT CAVOK 13/08 Q1006
EGLL - Heathrow Airport, United Kingdom
Distance from station: NNE 57mi, 91km
Updated: 23-May-2022 02:50:00
Clear
Clear
 Wind from WSW
Wind: WSW 3 mph , 6 km/h
Temperature: 13°C
Dew Point: 8°C
Humidity: 72%
Barometer: 1006 hPa
Clouds: Clear
Visibility: 6 miles , 10 km
2022/05/23 01:50 EGLL 230150Z AUTO 25003KT 9999 NCD 13/08 Q1006
 
EGUB - RAF Benson, United Kingdom
Distance from station: N 58mi, 93km
Updated: 23-May-2022 02:50:00
Few Clouds
Few Clouds
 Wind from S
Wind: S 5 mph , 7 km/h
Temperature: 10°C
Wind Chill: 9°C
Dew Point: 7°C
Humidity: 82%
Barometer: 1005 hPa
Clouds: Few Clouds
Visibility: 6 miles , 10 km
Cloud details: Few Clouds 3658 m
2022/05/23 01:50 EGUB 230150Z AUTO 17004KT 9999 FEW120/// 10/07 Q1005
EGWU - RAF Northolt, United Kingdom
Distance from station: NNE 62mi, 99km
Updated: 23-May-2022 02:50:00
Mostly cloudy
Mostly cloudy
 Wind from W
Wind: W 1 mph , 2 km/h
Temperature: 10°C
Dew Point: 7°C
Humidity: 82%
Barometer: 1005 hPa
Clouds: Mostly cloudy
Visibility: 6 miles , 10 km
Cloud details: Mostly cloudy 5791 m
2022/05/23 01:50 EGWU 230150Z AUTO 28001KT 9999 BKN190/// 10/07 Q1005
EGKB - Biggin Hill Airport, United Kingdom
Distance from station: NE 62mi, 100km
Updated: 22-May-2022 21:20:00
NOT Current
Clear
Clear
 Wind from SSW
Wind: SSW 9 mph , 15 km/h
Temperature: 15°C
Dew Point: 9°C
Humidity: 68%
Barometer: 1009 hPa
Summary: Clear
Visibility: greater than 7 miles , 10 km
2022/05/22 20:20 EGKB 222020Z 21008KT CAVOK 15/09 Q1009
 
EGDY - RNAS Yeovilton, United Kingdom
Distance from station: WNW 66mi, 107km
Updated: 23-May-2022 02:50:00
Mostly cloudy
Mostly cloudy
 Wind from W
Wind: W 2 mph , 4 km/h
Temperature: 13°C
Dew Point: 11°C
Humidity: 88%
Barometer: 1006 hPa
Clouds: Mostly cloudy
Visibility: 6 miles , 10 km
Cloud details: Partly cloudy 640 m
Mostly cloudy 1006 m
2022/05/23 01:50 EGDY 230150Z AUTO 27002KT 9999 SCT021/// BKN033/// 13/11 Q1006
EGUO - Colerne Airfield, United Kingdom
Distance from station: NW 67mi, 108km
Updated: 14-Feb-2019 22:50:00
NOT Current
Clear
Clear
 Wind from ENE
Wind: ENE 1 mph , 2 km/h
Temperature: 1°C
Dew Point: 0°C
Humidity: 93%
Barometer: 1029 hPa
Summary: Clear
Visibility: greater than 7 miles , 10 km
2019/02/14 22:50 EGUO 142250Z 06001KT CAVOK 01/00 Q1029 BLU NOSIG
EGVA - RAF Fairford, United Kingdom
Distance from station: NNW 67mi, 108km
Updated: 23-May-2022 02:56:00
Overcast
Overcast
 Wind from WSW
Wind: WSW 9 mph , 15 km/h
Temperature: 13°C
Dew Point: 13°C
Humidity: 100%
Barometer: 1005.1 hPa
Clouds: Overcast
Visibility: 6 miles , 10 km
Cloud details: Overcast 2591 m
2022/05/23 01:56 EGVA 230156Z AUTO 25008KT 9999 OVC085 13/13 A2968 RMK AO2 SLP052 T01320130 $
 
EGVN - RAF Brize Norton, United Kingdom
Distance from station: NNW 71mi, 114km
Updated: 23-May-2022 02:50:00
Mostly cloudy
Mostly cloudy
 Wind from WSW
Wind: WSW 5 mph , 7 km/h
Temperature: 14°C
Dew Point: 10°C
Humidity: 77%
Barometer: 1005 hPa
Clouds: Mostly cloudy
Visibility: 6 miles , 10 km
Cloud details: Few Clouds 1219 m
Mostly cloudy 2438 m
2022/05/23 01:50 EGVN 230150Z 25004KT 9999 FEW040 BKN080 14/10 Q1005 NOSIG
EGLC - London City Airport, United Kingdom
Distance from station: NE 71mi, 115km
Updated: 23-May-2022 02:50:00
Clear
Clear
 Wind from SW
Wind: SW 6 mph , 9 km/h
Temperature: 15°C
Dew Point: 9°C
Humidity: 68%
Barometer: 1006 hPa
Clouds: Clear
Visibility: 6 miles , 10 km
2022/05/23 01:50 EGLC 230150Z AUTO 22005KT 9999 NCD 15/09 Q1006
EGGD - Bristol Airport, United Kingdom
Distance from station: WNW 80mi, 128km
Updated: 23-May-2022 02:50:00
Mostly cloudy
Mostly cloudy
 Wind from W
Wind: W 9 mph , 15 km/h
Temperature: 12°C
Dew Point: 11°C
Humidity: 94%
Barometer: 1006 hPa
Clouds: Mostly cloudy
Visibility: 6 miles , 10 km
Cloud details: Partly cloudy 91 m
Partly cloudy 701 m
Mostly cloudy 853 m
2022/05/23 01:50 EGGD 230150Z AUTO 26008KT 9999 SCT003 SCT023 BKN028 12/11 Q1006
 
LFRC - Cherbourg-Maupertus Airport, France
Distance from station: S 81mi, 130km
Updated: 23-May-2022 03:00:00

 Wind from NW
Wind: NW 7 mph , 11 km/h
Visibility: 1 mile , 2 km
2022/05/23 02:00 LFRC 230200Z AUTO 31006KT 290V350 2200 1100 R28/2000D BR BKN002/// OVC098/// ///TCU 12/12 Q1006
EGGW - Luton Airport, United Kingdom
Distance from station: NNE 82mi, 132km
Updated: 23-May-2022 02:50:00
Clear
Clear
 Wind from SW
Wind: SW 6 mph , 9 km/h
Temperature: 10°C
Wind Chill: 9°C
Dew Point: 8°C
Humidity: 88%
Barometer: 1006 hPa
Clouds: Clear
Visibility: 6 miles , 10 km
2022/05/23 01:50 EGGW 230150Z AUTO 22005KT 9999 NCD 10/08 Q1006